Terminal Aerodrome Forecast
Issued by NWS Memphis, TN

Home | Current Version | Previous Version | Text Only | Print | Product List | Glossary On
Versions: 1 2 3 4 5 6 7 8 9 10 11 12 13 14 15 16 17 18 19 20 21 22 23 24
000
FTUS44 KMEG 300259 AAA
TAFMEM
TAF AMD
KMEM 300259Z 3003/3024 04005KT P6SM SCT070 SCT250
     FM300800 35004KT P6SM OVC035
      TEMPO 3008/3012 BKN015
     FM301500 32008KT P6SM BKN050=

USA.gov is the U.S. government's official web portal to all federal, state and local government web resources and services.